Time;durP1;ratioP1;P1;durP2;ratioP2;P2;SDS_P1;SDS_P2;PMS_P1;PMS_P2;Temp;Humidity;BMP_temperature;BMP_pressure;BME280_temperature;BME280_humidity;BME280_pressure;Samples;Min_cycle;Max_cycle;Signal;HPM_P1;HPM_P2
2021/11/14 00:02:13;;;;;;;14.80;10.97;;;7.10;99.90;;;;;;6171108;23;20204;-78
2021/11/14 00:04:38;;;;;;;13.53;10.03;;;7.10;99.90;;;;;;6147820;23;20546;-79
2021/11/14 00:07:04;;;;;;;12.33;9.73;;;7.10;99.90;;;;;;6173728;23;20171;-80
2021/11/14 00:09:30;;;;;;;13.40;9.87;;;7.10;99.90;;;;;;6146916;23;20285;-79
2021/11/14 00:11:56;;;;;;;11.47;8.87;;;7.10;99.90;;;;;;6143703;23;20902;-80
2021/11/14 00:14:23;;;;;;;11.07;8.60;;;7.00;99.90;;;;;;6173380;23;20151;-78
2021/11/14 00:16:48;;;;;;;12.83;8.80;;;7.10;99.90;;;;;;6177274;23;20159;-78
2021/11/14 00:19:15;;;;;;;12.30;8.83;;;7.10;99.90;;;;;;6151154;23;20952;-79
2021/11/14 00:21:41;;;;;;;12.73;9.10;;;7.10;99.90;;;;;;6149164;23;20170;-81
2021/11/14 00:24:12;;;;;;;12.87;8.73;;;7.00;99.90;;;;;;6151802;23;20170;-80
2021/11/14 00:26:39;;;;;;;11.33;8.57;;;7.00;99.90;;;;;;6150273;23;20229;-81
2021/11/14 00:29:07;;;;;;;11.43;8.60;;;7.00;99.90;;;;;;6177554;23;20182;-80
2021/11/14 00:31:32;;;;;;;13.33;9.53;;;7.00;99.90;;;;;;6147568;23;20180;-78
2021/11/14 00:33:59;;;;;;;14.93;10.43;;;7.10;99.90;;;;;;6177277;23;20599;-79
2021/11/14 00:36:28;;;;;;;15.73;11.30;;;7.00;99.90;;;;;;6151671;23;20166;-78
2021/11/14 00:38:54;;;;;;;12.93;10.13;;;7.00;99.90;;;;;;6177940;23;20171;-80
2021/11/14 00:41:21;;;;;;;12.13;9.47;;;7.00;99.90;;;;;;6174465;23;20159;-79
2021/11/14 00:43:48;;;;;;;14.30;10.10;;;7.00;99.90;;;;;;6176376;23;20155;-80
2021/11/14 00:46:14;;;;;;;13.53;9.97;;;7.00;99.90;;;;;;6149863;23;20173;-79
2021/11/14 00:48:43;;;;;;;12.93;9.43;;;7.00;99.90;;;;;;6149949;23;20281;-81
2021/11/14 00:51:16;;;;;;;13.57;8.67;;;7.00;99.90;;;;;;6174396;23;20158;-82
2021/11/14 00:53:42;;;;;;;11.30;8.67;;;7.00;99.90;;;;;;6177520;23;20144;-79
2021/11/14 00:56:08;;;;;;;12.10;8.87;;;7.00;99.90;;;;;;6149681;23;20666;-79
2021/11/14 00:58:34;;;;;;;13.07;8.77;;;7.00;99.90;;;;;;6177127;23;20155;-80
2021/11/14 01:01:00;;;;;;;13.87;8.17;;;7.00;99.90;;;;;;6148012;23;20762;-81
2021/11/14 01:03:27;;;;;;;11.47;9.57;;;7.00;99.90;;;;;;6150445;23;20268;-79
2021/11/14 01:05:53;;;;;;;14.50;8.83;;;6.90;99.90;;;;;;6151444;23;20690;-80
2021/11/14 01:08:19;;;;;;;12.27;8.90;;;7.00;99.90;;;;;;6177058;23;20178;-79
2021/11/14 01:10:49;;;;;;;12.07;8.97;;;7.00;99.90;;;;;;6173765;23;20167;-79
2021/11/14 01:13:15;;;;;;;12.13;8.77;;;7.00;99.90;;;;;;6177133;23;20241;-79
2021/11/14 01:15:41;;;;;;;13.83;9.40;;;7.00;99.90;;;;;;6179644;23;20542;-79
2021/11/14 01:18:08;;;;;;;13.63;9.33;;;7.00;99.90;;;;;;6153341;23;20634;-80
2021/11/14 01:20:38;;;;;;;11.43;8.80;;;7.00;99.90;;;;;;6149798;23;20182;-79
2021/11/14 01:23:06;;;;;;;13.53;9.10;;;7.00;99.90;;;;;;6153595;23;20167;-79
2021/11/14 01:25:32;;;;;;;13.50;10.33;;;7.00;99.90;;;;;;6152600;23;20285;-81
2021/11/14 01:27:58;;;;;;;14.97;10.20;;;7.00;99.90;;;;;;6152738;23;20214;-79
2021/11/14 01:30:29;;;;;;;13.93;9.90;;;7.00;99.90;;;;;;6148111;23;20183;-81
2021/11/14 01:32:56;;;;;;;13.03;10.00;;;7.00;99.90;;;;;;6153654;23;20178;-80
2021/11/14 01:35:23;;;;;;;18.83;11.03;;;7.00;99.90;;;;;;6152820;23;20163;-81
2021/11/14 01:37:50;;;;;;;14.27;10.60;;;7.00;99.90;;;;;;6180086;23;20169;-79
2021/11/14 01:40:24;;;;;;;15.10;10.30;;;7.00;99.90;;;;;;6178025;23;20181;-79
2021/11/14 01:42:50;;;;;;;12.53;9.80;;;7.00;99.90;;;;;;6152761;23;20167;-79
2021/11/14 01:45:16;;;;;;;11.60;9.37;;;7.00;99.90;;;;;;6152962;23;20182;-81
2021/11/14 01:47:42;;;;;;;13.40;10.07;;;7.00;99.90;;;;;;6153400;23;20973;-81
2021/11/14 01:50:12;;;;;;;12.33;8.80;;;7.00;99.90;;;;;;6179309;23;20174;-79
2021/11/14 01:52:39;;;;;;;12.67;9.37;;;7.00;99.90;;;;;;6151009;23;20186;-79
2021/11/14 01:55:06;;;;;;;13.67;9.40;;;7.00;99.90;;;;;;6179697;23;20179;-81
2021/11/14 01:57:32;;;;;;;13.70;10.30;;;7.10;99.90;;;;;;6153305;23;20163;-80
2021/11/14 01:59:57;;;;;;;10.70;8.47;;;7.10;99.90;;;;;;6180340;23;20181;-81
2021/11/14 02:02:23;;;;;;;12.63;8.30;;;7.10;99.90;;;;;;6152723;23;20559;-81
2021/11/14 02:04:49;;;;;;;13.93;9.60;;;7.10;99.90;;;;;;6156740;23;20169;-81
2021/11/14 02:07:17;;;;;;;12.10;9.10;;;7.10;99.90;;;;;;6157564;23;20202;-80
2021/11/14 02:09:43;;;;;;;11.53;8.87;;;7.00;99.90;;;;;;6182724;23;20281;-79
2021/11/14 02:12:09;;;;;;;11.83;9.13;;;7.10;99.90;;;;;;6153316;23;20234;-83
2021/11/14 02:14:35;;;;;;;11.70;9.10;;;7.10;99.90;;;;;;6183550;23;20239;-79
2021/11/14 02:17:02;;;;;;;12.53;8.53;;;7.10;99.90;;;;;;6184338;23;20151;-81
2021/11/14 02:19:28;;;;;;;11.80;9.00;;;7.10;99.90;;;;;;6156353;23;20189;-81
2021/11/14 02:21:54;;;;;;;14.23;10.63;;;7.10;99.90;;;;;;6180950;23;20154;-81
2021/11/14 02:24:20;;;;;;;14.90;9.97;;;7.10;99.90;;;;;;6156973;23;20251;-80
2021/11/14 02:26:47;;;;;;;12.93;9.73;;;7.10;99.90;;;;;;6181869;23;20186;-82
2021/11/14 02:29:15;;;;;;;11.57;9.10;;;7.10;99.90;;;;;;6155022;23;20679;-79
2021/11/14 02:31:41;;;;;;;13.37;9.77;;;7.10;99.90;;;;;;6179185;23;20151;-80
2021/11/14 02:34:07;;;;;;;13.93;9.50;;;7.10;99.90;;;;;;6182534;23;20242;-81
2021/11/14 02:36:33;;;;;;;15.20;10.80;;;7.10;99.90;;;;;;6155135;23;20159;-81
2021/11/14 02:38:59;;;;;;;12.47;9.57;;;7.10;99.90;;;;;;6154098;23;20171;-81
2021/11/14 02:41:24;;;;;;;13.93;10.03;;;7.10;99.90;;;;;;6178723;23;20927;-79
2021/11/14 02:43:51;;;;;;;13.23;9.73;;;7.10;99.90;;;;;;6181713;23;20143;-80
2021/11/14 02:46:17;;;;;;;14.37;10.17;;;7.10;99.90;;;;;;6154367;23;20151;-81
2021/11/14 02:48:43;;;;;;;14.07;10.13;;;7.10;99.90;;;;;;6181878;23;20217;-79
2021/11/14 02:51:14;;;;;;;15.13;10.80;;;7.10;99.90;;;;;;6150353;23;20158;-81
2021/11/14 02:53:40;;;;;;;16.73;11.63;;;7.10;99.90;;;;;;6153788;23;20159;-81
2021/11/14 02:56:07;;;;;;;14.07;10.00;;;7.00;99.90;;;;;;6155008;23;20869;-82
2021/11/14 02:58:33;;;;;;;13.33;10.37;;;7.00;99.90;;;;;;6181313;23;20155;-81
2021/11/14 03:01:07;;;;;;;14.23;10.10;;;7.00;99.90;;;;;;6178579;23;20664;-81
2021/11/14 03:03:33;;;;;;;14.57;10.17;;;7.00;99.90;;;;;;6154721;23;20211;-79
2021/11/14 03:05:59;;;;;;;13.83;10.67;;;7.00;99.90;;;;;;6154273;23;20305;-82
2021/11/14 03:08:25;;;;;;;13.97;10.60;;;7.00;99.90;;;;;;6180901;23;20178;-82
2021/11/14 03:10:50;;;;;;;15.80;11.37;;;7.00;99.90;;;;;;6177020;23;20197;-80
2021/11/14 03:13:19;;;;;;;16.20;11.03;;;7.00;99.90;;;;;;6181436;23;20171;-78
2021/11/14 03:15:48;;;;;;;17.80;11.23;;;7.00;99.90;;;;;;6180810;23;20155;-81
2021/11/14 03:18:15;;;;;;;13.70;11.00;;;7.00;99.90;;;;;;6180278;23;20159;-80
2021/11/14 03:20:42;;;;;;;14.77;11.13;;;7.00;99.90;;;;;;6176300;23;20183;-79
2021/11/14 03:23:09;;;;;;;16.70;12.37;;;7.00;99.90;;;;;;6153802;23;20523;-79
2021/11/14 03:25:35;;;;;;;18.13;12.87;;;7.00;99.90;;;;;;6153729;23;20165;-80
2021/11/14 03:28:02;;;;;;;17.10;12.03;;;7.00;99.90;;;;;;6148659;23;20190;-79
2021/11/14 03:30:32;;;;;;;19.47;12.57;;;7.00;99.90;;;;;;6146631;23;20194;-79
2021/11/14 03:33:00;;;;;;;16.90;12.10;;;7.00;99.90;;;;;;6149988;23;20148;-80
2021/11/14 03:35:25;;;;;;;18.97;12.30;;;7.00;99.90;;;;;;6176139;23;20151;-79
2021/11/14 03:37:51;;;;;;;18.80;12.53;;;7.00;99.90;;;;;;6148699;23;20178;-78
2021/11/14 03:40:19;;;;;;;18.73;11.90;;;7.00;99.90;;;;;;6146581;23;20186;-77
2021/11/14 03:42:46;;;;;;;16.23;11.47;;;7.00;99.90;;;;;;6147690;23;20189;-80
2021/11/14 03:45:11;;;;;;;18.97;12.20;;;7.00;99.90;;;;;;6148967;23;20163;-80
2021/11/14 03:47:39;;;;;;;16.00;11.53;;;7.00;99.90;;;;;;6174779;23;20258;-79
2021/11/14 03:50:06;;;;;;;17.53;11.93;;;7.00;99.90;;;;;;6174383;23;20185;-78
2021/11/14 03:52:32;;;;;;;17.90;12.03;;;7.00;99.90;;;;;;6171843;23;20158;-81
2021/11/14 03:54:58;;;;;;;16.00;12.57;;;7.00;99.90;;;;;;6148018;23;20167;-77
2021/11/14 03:57:24;;;;;;;17.77;11.37;;;7.00;99.90;;;;;;6147364;23;20234;-79
2021/11/14 03:59:50;;;;;;;18.00;12.00;;;7.00;99.90;;;;;;6147185;23;20186;-80
2021/11/14 04:02:16;;;;;;;17.73;12.87;;;7.00;99.90;;;;;;6143849;23;20176;-79
2021/11/14 04:04:41;;;;;;;16.17;11.90;;;7.00;99.90;;;;;;6146719;23;20182;-79
2021/11/14 04:07:07;;;;;;;19.90;12.23;;;7.00;99.90;;;;;;6146326;23;20643;-80
2021/11/14 04:09:33;;;;;;;16.70;12.43;;;7.00;99.90;;;;;;6145984;23;20282;-81
2021/11/14 04:11:58;;;;;;;20.50;12.97;;;7.00;99.90;;;;;;6146298;23;20275;-78
2021/11/14 04:14:24;;;;;;;20.57;13.00;;;6.90;99.90;;;;;;6152118;23;20186;-79
2021/11/14 04:16:49;;;;;;;16.33;11.73;;;7.00;99.90;;;;;;6151976;23;20163;-80
2021/11/14 04:19:15;;;;;;;19.30;11.70;;;7.00;99.90;;;;;;6178324;23;20246;-81
2021/11/14 04:21:41;;;;;;;18.80;12.90;;;7.00;99.90;;;;;;6147798;23;20670;-78
2021/11/14 04:24:06;;;;;;;17.10;11.03;;;6.90;99.90;;;;;;6178557;23;20190;-80
2021/11/14 04:26:32;;;;;;;18.50;12.17;;;7.00;99.90;;;;;;6178291;23;20139;-82
2021/11/14 04:28:58;;;;;;;17.13;11.80;;;7.00;99.90;;;;;;6177918;23;20178;-79
2021/11/14 04:31:23;;;;;;;17.67;11.90;;;7.00;99.90;;;;;;6175349;23;20532;-80
2021/11/14 04:33:49;;;;;;;14.97;11.13;;;7.00;99.90;;;;;;6152591;23;20167;-79
2021/11/14 04:36:15;;;;;;;17.27;12.20;;;7.00;99.90;;;;;;6151576;23;20162;-79
2021/11/14 04:38:40;;;;;;;18.17;12.60;;;7.00;99.90;;;;;;6151262;23;20994;-80
2021/11/14 04:41:06;;;;;;;18.87;12.37;;;7.00;99.90;;;;;;6147555;23;20162;-81
2021/11/14 04:43:32;;;;;;;18.43;12.67;;;7.00;99.90;;;;;;6152225;23;20190;-80
2021/11/14 04:45:57;;;;;;;23.77;13.37;;;7.00;99.90;;;;;;6151597;23;20170;-80
2021/11/14 04:48:24;;;;;;;18.60;12.07;;;7.00;99.90;;;;;;6150534;23;20197;-81
2021/11/14 04:50:51;;;;;;;20.37;12.93;;;7.00;99.90;;;;;;6174275;23;20615;-80
2021/11/14 04:53:17;;;;;;;20.77;13.37;;;7.00;99.90;;;;;;6150755;23;20163;-80
2021/11/14 04:55:43;;;;;;;18.03;11.97;;;7.00;99.90;;;;;;6151286;23;20190;-80
2021/11/14 04:58:11;;;;;;;19.60;13.30;;;6.90;99.90;;;;;;6150736;23;20162;-81
2021/11/14 05:00:50;;;;;;;21.97;13.83;;;6.90;99.90;;;;;;6148586;23;20182;-82
2021/11/14 05:03:16;;;;;;;18.90;13.90;;;6.90;99.90;;;;;;6151304;23;20157;-79
2021/11/14 05:05:42;;;;;;;20.10;12.83;;;6.90;99.90;;;;;;6177708;23;20165;-80
2021/11/14 05:08:09;;;;;;;18.27;12.80;;;6.90;99.90;;;;;;6177745;23;20253;-80
2021/11/14 05:10:34;;;;;;;24.13;14.77;;;6.90;99.90;;;;;;6174727;23;21091;-82
2021/11/14 05:13:01;;;;;;;22.47;14.70;;;6.90;99.90;;;;;;6176882;23;20165;-80
2021/11/14 05:15:26;;;;;;;21.07;13.30;;;7.00;99.90;;;;;;6152238;23;20159;-80
2021/11/14 05:17:52;;;;;;;21.90;13.80;;;6.90;99.90;;;;;;6151198;23;20159;-81
2021/11/14 05:20:18;;;;;;;21.50;13.60;;;6.90;99.90;;;;;;6148548;23;20527;-79
2021/11/14 05:22:43;;;;;;;19.80;13.63;;;6.90;99.90;;;;;;6176039;23;20598;-79
2021/11/14 05:25:10;;;;;;;21.20;13.57;;;6.90;99.90;;;;;;6150962;23;20393;-80
2021/11/14 05:27:36;;;;;;;20.57;13.47;;;6.90;99.90;;;;;;6150328;23;20575;-82
2021/11/14 05:30:04;;;;;;;19.77;13.33;;;6.90;99.90;;;;;;6150541;23;20232;-80
2021/11/14 05:32:30;;;;;;;21.50;13.97;;;6.90;99.90;;;;;;6147621;23;20190;-79
2021/11/14 05:34:55;;;;;;;21.13;12.93;;;6.90;99.90;;;;;;6177479;23;20398;-80
2021/11/14 05:37:21;;;;;;;21.77;13.67;;;6.90;99.90;;;;;;6150548;23;20171;-80
2021/11/14 05:39:47;;;;;;;21.20;13.47;;;6.90;99.90;;;;;;6150976;23;20186;-81
2021/11/14 05:42:12;;;;;;;20.90;12.80;;;6.90;99.90;;;;;;6172414;23;20155;-80
2021/11/14 05:44:39;;;;;;;22.47;13.80;;;6.90;99.90;;;;;;6151970;23;20170;-80
2021/11/14 05:47:05;;;;;;;21.63;14.70;;;6.90;99.90;;;;;;6150230;23;20217;-81
2021/11/14 05:49:30;;;;;;;23.20;15.00;;;6.90;99.90;;;;;;6151045;23;20179;-79
2021/11/14 05:51:56;;;;;;;27.20;15.50;;;6.90;99.90;;;;;;6146844;23;20155;-81
2021/11/14 05:54:22;;;;;;;21.97;14.37;;;6.90;99.90;;;;;;6177670;23;20155;-79
2021/11/14 05:56:47;;;;;;;23.10;15.07;;;6.90;99.90;;;;;;6150197;23;20162;-80
2021/11/14 05:59:34;;;;;;;25.57;14.90;;;6.90;99.90;;;;;;6149995;23;20198;-80
2021/11/14 06:02:07;;;;;;;23.53;14.67;;;6.90;99.90;;;;;;6176448;23;20143;-80
2021/11/14 06:04:48;;;;;;;23.53;14.53;;;6.90;99.90;;;;;;6178991;23;20139;-81
2021/11/14 06:07:14;;;;;;;19.93;14.30;;;7.00;99.90;;;;;;6153191;23;20584;-80
2021/11/14 06:09:39;;;;;;;22.93;14.87;;;6.90;99.90;;;;;;6151442;23;20206;-80
2021/11/14 06:12:06;;;;;;;25.50;14.73;;;6.90;99.90;;;;;;6174533;23;20588;-80
2021/11/14 06:14:34;;;;;;;25.23;15.50;;;7.00;99.90;;;;;;6152535;23;20159;-79
2021/11/14 06:17:00;;;;;;;25.00;15.63;;;6.90;99.90;;;;;;6179409;23;20151;-81
2021/11/14 06:19:26;;;;;;;25.63;14.77;;;6.90;99.90;;;;;;6151087;23;20183;-79
2021/11/14 06:21:52;;;;;;;23.63;15.10;;;6.90;99.90;;;;;;6149028;23;20665;-80
2021/11/14 06:24:17;;;;;;;24.20;14.93;;;6.90;99.90;;;;;;6179098;23;20162;-79
2021/11/14 06:26:44;;;;;;;25.50;14.87;;;6.90;99.90;;;;;;6178820;23;20159;-79
2021/11/14 06:29:10;;;;;;;24.00;15.17;;;6.90;99.90;;;;;;6152300;23;21006;-80
2021/11/14 06:31:36;;;;;;;26.73;15.77;;;6.90;99.90;;;;;;6174754;23;20151;-79
2021/11/14 06:34:01;;;;;;;20.97;14.33;;;7.00;99.90;;;;;;6179264;23;20188;-80
2021/11/14 06:36:27;;;;;;;23.63;14.97;;;6.90;99.90;;;;;;6152147;23;20177;-80
2021/11/14 06:38:53;;;;;;;21.33;14.00;;;6.90;99.90;;;;;;6152519;23;20179;-80
2021/11/14 06:41:18;;;;;;;22.03;14.60;;;6.90;99.90;;;;;;6174645;23;20217;-79
2021/11/14 06:43:44;;;;;;;22.70;14.83;;;6.90;99.90;;;;;;6152607;23;20174;-80
2021/11/14 06:46:10;;;;;;;32.30;15.00;;;6.90;99.90;;;;;;6179696;23;20159;-79
2021/11/14 06:48:36;;;;;;;22.87;14.47;;;6.90;99.90;;;;;;6178964;23;20260;-81
2021/11/14 06:51:02;;;;;;;24.93;15.40;;;6.90;99.90;;;;;;6175390;23;20178;-81
2021/11/14 06:53:27;;;;;;;19.43;14.20;;;6.90;99.90;;;;;;6152681;23;20170;-81
2021/11/14 06:55:53;;;;;;;23.30;14.80;;;7.00;99.90;;;;;;6152721;23;20155;-81
2021/11/14 06:58:20;;;;;;;20.83;14.10;;;7.00;99.90;;;;;;6178079;23;20155;-80
2021/11/14 07:00:46;;;;;;;21.63;14.60;;;7.00;99.90;;;;;;6175155;23;20155;-81
2021/11/14 07:03:12;;;;;;;23.57;15.23;;;7.00;99.90;;;;;;6177069;23;20159;-81
2021/11/14 07:05:38;;;;;;;27.77;15.33;;;7.00;99.90;;;;;;6155714;23;20238;-79
2021/11/14 07:08:04;;;;;;;24.33;15.20;;;7.00;99.90;;;;;;6151894;23;20217;-81
2021/11/14 07:10:29;;;;;;;24.13;15.00;;;7.00;99.90;;;;;;6150554;23;20203;-81
2021/11/14 07:12:55;;;;;;;22.90;14.87;;;7.00;99.90;;;;;;6149892;23;20182;-79
2021/11/14 07:15:22;;;;;;;23.87;15.27;;;7.00;99.90;;;;;;6177556;23;20202;-80
2021/11/14 07:17:47;;;;;;;25.03;14.90;;;7.00;99.90;;;;;;6150240;23;20241;-79
2021/11/14 07:20:15;;;;;;;24.00;15.33;;;7.00;99.90;;;;;;6151693;23;20194;-79
2021/11/14 07:22:42;;;;;;;23.23;15.53;;;7.10;99.90;;;;;;6143066;23;20170;-81
2021/11/14 07:25:08;;;;;;;25.10;15.60;;;7.00;99.90;;;;;;6142982;23;20151;-79
2021/11/14 07:27:34;;;;;;;27.07;15.97;;;7.10;99.90;;;;;;6175148;23;20183;-80
2021/11/14 07:30:00;;;;;;;22.77;14.80;;;7.10;99.90;;;;;;6174111;23;20262;-80
2021/11/14 07:32:25;;;;;;;24.37;16.10;;;7.10;99.90;;;;;;6140573;23;20166;-80
2021/11/14 07:34:51;;;;;;;25.77;15.17;;;7.10;99.90;;;;;;6177922;23;20493;-79
2021/11/14 07:37:16;;;;;;;23.93;15.23;;;7.10;99.90;;;;;;6150423;23;20170;-80
2021/11/14 07:39:42;;;;;;;21.13;14.10;;;7.10;99.90;;;;;;6148810;23;20183;-80
2021/11/14 07:42:08;;;;;;;21.93;14.47;;;7.20;99.90;;;;;;6145258;23;20250;-81
2021/11/14 07:44:34;;;;;;;25.93;15.40;;;7.20;99.90;;;;;;6147449;23;20186;-79
2021/11/14 07:46:59;;;;;;;25.27;15.77;;;7.20;99.90;;;;;;6173847;23;20873;-81
2021/11/14 07:49:25;;;;;;;25.87;15.00;;;7.20;99.90;;;;;;6172735;23;20167;-79
2021/11/14 07:51:50;;;;;;;26.30;15.77;;;7.20;99.90;;;;;;6169209;23;20685;-82
2021/11/14 07:54:16;;;;;;;26.57;16.57;;;7.20;99.90;;;;;;6174041;23;20203;-79
2021/11/14 07:56:42;;;;;;;28.57;17.37;;;7.20;99.90;;;;;;6178549;23;20151;-81
2021/11/14 07:59:07;;;;;;;26.07;15.17;;;7.20;99.90;;;;;;6151187;23;20525;-81
2021/11/14 08:01:33;;;;;;;24.67;15.73;;;7.30;99.90;;;;;;6174433;23;20151;-80
2021/11/14 08:03:58;;;;;;;23.57;15.30;;;7.30;99.90;;;;;;6177875;23;20200;-81
2021/11/14 08:06:24;;;;;;;23.67;15.40;;;7.30;99.90;;;;;;6178408;23;20206;-80
2021/11/14 08:08:50;;;;;;;27.80;17.00;;;7.30;99.90;;;;;;6177195;23;20190;-80
2021/11/14 08:11:15;;;;;;;24.13;15.03;;;7.40;99.90;;;;;;6174999;23;20803;-79
2021/11/14 08:13:41;;;;;;;22.93;14.77;;;7.40;99.90;;;;;;6152149;23;20159;-81
2021/11/14 08:16:07;;;;;;;23.83;15.80;;;7.40;99.90;;;;;;6152545;23;21075;-80
2021/11/14 08:18:33;;;;;;;23.93;15.63;;;7.40;99.90;;;;;;6150804;23;20212;-81
2021/11/14 08:21:00;;;;;;;26.83;16.67;;;7.40;99.90;;;;;;6174393;23;20181;-80
2021/11/14 08:23:26;;;;;;;23.90;15.27;;;7.40;99.90;;;;;;6149563;23;20170;-82
2021/11/14 08:25:52;;;;;;;24.17;15.73;;;7.40;99.90;;;;;;6150797;23;20162;-80
2021/11/14 08:28:18;;;;;;;29.23;16.93;;;7.50;99.90;;;;;;6151347;23;20196;-81
2021/11/14 08:30:44;;;;;;;28.83;15.87;;;7.50;99.90;;;;;;6149166;23;21039;-79
2021/11/14 08:33:11;;;;;;;26.27;16.43;;;7.50;99.90;;;;;;6150996;23;20154;-80
2021/11/14 08:35:36;;;;;;;25.60;15.73;;;7.50;99.90;;;;;;6152175;23;20189;-80
2021/11/14 08:38:03;;;;;;;23.93;15.97;;;7.50;99.90;;;;;;6150678;23;20162;-80
2021/11/14 08:40:31;;;;;;;26.53;16.50;;;7.60;99.90;;;;;;6148463;23;20198;-79
2021/11/14 08:43:00;;;;;;;29.17;17.40;;;7.60;99.90;;;;;;6151070;23;20155;-82
2021/11/14 08:45:26;;;;;;;31.97;19.40;;;7.60;99.90;;;;;;6150067;23;20167;-80
2021/11/14 08:47:53;;;;;;;33.57;21.37;;;7.60;99.90;;;;;;6175081;23;20174;-80
2021/11/14 08:50:18;;;;;;;26.67;17.63;;;7.70;99.90;;;;;;6148838;23;20182;-79
2021/11/14 08:52:45;;;;;;;43.47;32.00;;;7.70;99.90;;;;;;6150130;23;20163;-80
2021/11/14 08:55:17;;;;;;;35.53;25.60;;;7.70;99.90;;;;;;6151338;23;20154;-80
2021/11/14 08:57:45;;;;;;;27.73;17.63;;;7.70;99.90;;;;;;6170799;23;20143;-78
2021/11/14 09:00:13;;;;;;;27.80;16.40;;;7.80;99.90;;;;;;6174525;23;20318;-80
2021/11/14 09:02:39;;;;;;;26.47;16.40;;;7.80;99.90;;;;;;6149885;23;20174;-82
2021/11/14 09:05:05;;;;;;;23.03;15.10;;;7.80;99.90;;;;;;6144270;23;20163;-79
2021/11/14 09:07:31;;;;;;;24.00;15.60;;;7.90;99.90;;;;;;6169442;23;20258;-79
2021/11/14 09:09:57;;;;;;;19.50;11.47;;;8.00;99.90;;;;;;6148613;23;20225;-81
2021/11/14 09:12:22;;;;;;;17.80;11.60;;;7.90;99.90;;;;;;6145804;23;20158;-81
2021/11/14 09:14:48;;;;;;;29.37;20.63;;;7.90;99.90;;;;;;6176896;23;20159;-80
2021/11/14 09:17:14;;;;;;;28.07;19.73;;;7.90;99.90;;;;;;6181205;23;20154;-82
2021/11/14 09:19:41;;;;;;;22.57;15.37;;;8.00;99.90;;;;;;6153720;23;20193;-80
2021/11/14 09:22:07;;;;;;;18.73;13.23;;;8.10;99.90;;;;;;6152729;23;20242;-81
2021/11/14 09:24:33;;;;;;;15.47;10.40;;;8.10;99.90;;;;;;6178373;23;20237;-83
2021/11/14 09:26:58;;;;;;;15.00;11.10;;;8.10;99.90;;;;;;6154538;23;20650;-79
2021/11/14 09:29:24;;;;;;;17.77;11.20;;;8.00;99.90;;;;;;6181606;23;20181;-80
2021/11/14 09:31:49;;;;;;;16.53;10.83;;;8.00;99.90;;;;;;6181265;23;20607;-81
2021/11/14 09:34:15;;;;;;;18.67;13.23;;;8.00;99.90;;;;;;6180889;23;20151;-80
2021/11/14 09:36:41;;;;;;;15.90;10.50;;;8.00;99.90;;;;;;6156033;23;20233;-83
2021/11/14 09:39:09;;;;;;;18.40;10.67;;;8.00;99.90;;;;;;6155269;23;20179;-83
2021/11/14 09:41:39;;;;;;;16.33;11.10;;;8.10;99.90;;;;;;6184139;23;20158;-83
2021/11/14 09:44:05;;;;;;;15.30;10.80;;;8.10;99.90;;;;;;6181753;23;20654;-81
2021/11/14 09:46:31;;;;;;;20.03;12.03;;;8.20;99.90;;;;;;6158144;23;20163;-81
2021/11/14 09:48:57;;;;;;;17.93;10.30;;;8.20;99.90;;;;;;6159070;23;20673;-81
2021/11/14 09:51:24;;;;;;;15.33;10.70;;;8.10;99.90;;;;;;6155323;23;20159;-81
2021/11/14 09:53:50;;;;;;;27.40;16.67;;;8.10;99.90;;;;;;6154981;23;20266;-80
2021/11/14 09:56:15;;;;;;;18.70;11.77;;;8.10;99.90;;;;;;6155739;23;20248;-81
2021/11/14 09:58:41;;;;;;;30.00;18.27;;;8.10;99.90;;;;;;6180955;23;20182;-80
2021/11/14 10:01:07;;;;;;;159.70;80.97;;;8.10;99.90;;;;;;6180466;23;20151;-79
2021/11/14 10:03:33;;;;;;;28.53;18.37;;;8.00;99.90;;;;;;6155183;23;20167;-78
2021/11/14 10:05:58;;;;;;;51.50;28.20;;;8.10;99.90;;;;;;6159667;23;20193;-78
2021/11/14 10:08:24;;;;;;;43.40;26.67;;;8.10;99.90;;;;;;6171801;23;20230;-79
2021/11/14 10:10:55;;;;;;;20.67;13.57;;;8.10;99.90;;;;;;6161381;23;20217;-78
2021/11/14 10:13:25;;;;;;;43.53;24.93;;;8.20;99.90;;;;;;6154124;23;20147;-80
2021/11/14 10:16:05;;;;;;;14.73;11.00;;;8.20;99.90;;;;;;6153768;23;20167;-81
2021/11/14 10:18:31;;;;;;;20.90;13.83;;;8.30;99.90;;;;;;6155732;23;20155;-82
2021/11/14 10:20:59;;;;;;;43.70;23.37;;;8.30;99.90;;;;;;6152928;23;20170;-80
2021/11/14 10:23:25;;;;;;;121.67;59.37;;;8.30;99.90;;;;;;6153588;23;20147;-83
2021/11/14 10:25:54;;;;;;;36.73;22.33;;;8.40;99.90;;;;;;6179693;23;20156;-82
2021/11/14 10:28:20;;;;;;;188.63;87.30;;;8.40;99.90;;;;;;6153107;23;20266;-80
2021/11/14 10:30:47;;;;;;;33.27;25.47;;;8.40;99.90;;;;;;6149837;23;20201;-78
2021/11/14 10:33:16;;;;;;;37.70;33.63;;;8.40;99.90;;;;;;6153189;23;20147;-78
2021/11/14 10:35:43;;;;;;;28.60;20.57;;;8.40;99.90;;;;;;6180296;23;20210;-78
2021/11/14 10:38:14;;;;;;;21.50;13.53;;;8.50;99.90;;;;;;6152580;23;20159;-80
2021/11/14 10:40:46;;;;;;;23.37;16.83;;;8.40;99.90;;;;;;6152563;23;20194;-81
2021/11/14 10:43:11;;;;;;;17.83;11.83;;;8.40;99.90;;;;;;6151880;23;20151;-76
2021/11/14 10:45:40;;;;;;;16.57;11.20;;;8.40;99.90;;;;;;6177459;23;20162;-79
2021/11/14 10:48:08;;;;;;;16.80;12.20;;;8.40;99.90;;;;;;6175059;23;20364;-77
2021/11/14 10:50:38;;;;;;;17.83;13.03;;;8.40;99.90;;;;;;6150735;23;20210;-79
2021/11/14 10:53:17;;;;;;;23.10;15.37;;;8.50;99.90;;;;;;6151233;23;20617;-80
2021/11/14 10:55:44;;;;;;;56.13;47.03;;;8.40;99.90;;;;;;6151624;23;20151;-79
2021/11/14 10:58:10;;;;;;;53.07;37.87;;;8.40;99.90;;;;;;6149999;23;20163;-80
2021/11/14 11:00:38;;;;;;;23.87;18.80;;;8.50;99.90;;;;;;6152176;23;20193;-81
2021/11/14 11:03:05;;;;;;;20.83;15.87;;;8.40;99.90;;;;;;6152414;23;20147;-81
2021/11/14 11:05:33;;;;;;;31.87;25.80;;;8.40;99.90;;;;;;6152215;23;20189;-83
2021/11/14 11:08:06;;;;;;;24.23;17.57;;;8.30;99.90;;;;;;6152074;23;20289;-83
2021/11/14 11:10:43;;;;;;;55.93;39.93;;;8.30;99.90;;;;;;6152528;23;20199;-80
2021/11/14 11:13:13;;;;;;;38.83;30.43;;;8.40;99.90;;;;;;6153598;23;20143;-82
2021/11/14 11:15:43;;;;;;;19.20;14.53;;;8.30;99.90;;;;;;6178194;23;20151;-79
2021/11/14 11:18:14;;;;;;;31.50;23.60;;;8.40;99.90;;;;;;6176936;23;20170;-80
2021/11/14 11:20:40;;;;;;;18.07;12.50;;;8.50;99.90;;;;;;6176806;23;20183;-81
2021/11/14 11:23:10;;;;;;;20.57;14.73;;;8.50;99.90;;;;;;6177126;23;20163;-80
2021/11/14 11:25:40;;;;;;;18.37;12.17;;;8.40;99.90;;;;;;6147769;23;20162;-80
2021/11/14 11:28:11;;;;;;;25.87;17.53;;;8.40;99.90;;;;;;6147435;23;20584;-76
2021/11/14 11:30:45;;;;;;;24.70;14.97;;;8.40;99.90;;;;;;6178443;23;20539;-79
2021/11/14 11:33:10;;;;;;;24.70;15.60;;;8.40;99.90;;;;;;6148640;23;20151;-79
2021/11/14 11:35:36;;;;;;;27.57;17.20;;;8.40;99.90;;;;;;6151619;23;20155;-79
2021/11/14 11:38:03;;;;;;;26.93;15.63;;;8.30;99.90;;;;;;6176612;23;20237;-79
2021/11/14 11:40:29;;;;;;;31.63;17.90;;;8.20;99.90;;;;;;6149056;23;20182;-79
2021/11/14 11:42:55;;;;;;;27.97;16.47;;;8.20;99.90;;;;;;6150407;23;20249;-79
2021/11/14 11:45:36;;;;;;;25.73;14.90;;;8.20;99.90;;;;;;6151025;23;20199;-79
2021/11/14 11:48:05;;;;;;;28.20;17.10;;;8.20;99.90;;;;;;6151375;23;20182;-82
2021/11/14 11:50:34;;;;;;;52.07;32.17;;;8.20;99.90;;;;;;6151314;23;20194;-81
2021/11/14 11:53:00;;;;;;;29.07;15.90;;;8.20;99.90;;;;;;6149829;23;20159;-81
2021/11/14 11:55:34;;;;;;;36.13;17.30;;;8.20;99.90;;;;;;6175965;23;20197;-79
2021/11/14 11:58:12;;;;;;;34.70;16.70;;;8.10;99.90;;;;;;6177561;23;20540;-80
2021/11/14 12:00:58;;;;;;;32.93;18.67;;;8.20;99.90;;;;;;6150752;23;20175;-82
2021/11/14 12:03:35;;;;;;;31.60;16.80;;;8.20;99.90;;;;;;6151143;23;20171;-84
2021/11/14 12:06:02;;;;;;;35.40;17.00;;;8.10;99.90;;;;;;6177368;23;20526;-84
2021/11/14 12:08:43;;;;;;;30.33;17.13;;;8.20;99.90;;;;;;6174758;23;20179;-77
2021/11/14 12:11:10;;;;;;;26.97;15.43;;;8.10;99.90;;;;;;6149930;23;20173;-82
2021/11/14 12:13:41;;;;;;;32.03;17.03;;;8.10;99.90;;;;;;6152607;23;20233;-82
2021/11/14 12:16:10;;;;;;;34.93;17.57;;;8.20;99.90;;;;;;6150075;23;20159;-80
2021/11/14 12:18:41;;;;;;;37.50;22.10;;;8.20;99.90;;;;;;6176487;23;20258;-79
2021/11/14 12:21:18;;;;;;;67.33;40.80;;;8.20;99.90;;;;;;6178230;23;20144;-77
2021/11/14 12:23:59;;;;;;;34.17;20.60;;;8.30;99.90;;;;;;6151774;23;20169;-82
2021/11/14 12:26:35;;;;;;;32.33;19.83;;;8.40;99.90;;;;;;6151270;23;20166;-84
2021/11/14 12:29:06;;;;;;;29.77;19.67;;;8.30;99.90;;;;;;6177514;23;20190;-81
2021/11/14 12:31:44;;;;;;;35.83;24.30;;;8.30;99.90;;;;;;6152247;23;20170;-80
2021/11/14 12:34:23;;;;;;;32.53;19.73;;;8.30;99.90;;;;;;6153272;23;20645;-81
2021/11/14 12:36:49;;;;;;;41.63;29.43;;;8.30;99.90;;;;;;6179458;23;20162;-82
2021/11/14 12:39:28;;;;;;;43.93;29.63;;;8.30;99.90;;;;;;6153702;23;20178;-83